createdAt,value
2018-03-15T00:01:00.487Z,26.50
2018-03-15T00:03:34.588Z,22.00
2018-03-15T00:06:05.783Z,27.83
2018-03-15T00:08:33.365Z,22.77
2018-03-15T00:11:00.815Z,31.10
2018-03-15T00:13:28.309Z,24.73
2018-03-15T00:15:55.816Z,22.07
2018-03-15T00:18:23.305Z,24.43
2018-03-15T00:20:51.257Z,22.03
2018-03-15T00:23:18.733Z,22.37
2018-03-15T00:25:46.221Z,28.57
2018-03-15T00:28:13.681Z,24.80
2018-03-15T00:30:41.159Z,23.37
2018-03-15T00:33:08.661Z,22.57
2018-03-15T00:35:36.130Z,24.80
2018-03-15T00:38:03.637Z,24.43
2018-03-15T00:40:31.137Z,24.67
2018-03-15T00:42:58.636Z,22.40
2018-03-15T00:45:26.137Z,23.10
2018-03-15T00:47:53.624Z,22.70
2018-03-15T00:50:21.101Z,22.20
2018-03-15T00:52:48.578Z,25.60
2018-03-15T00:55:16.088Z,25.67
2018-03-15T00:57:43.604Z,22.53
2018-03-15T01:00:11.154Z,23.30
2018-03-15T01:02:38.642Z,24.23
2018-03-15T01:05:06.152Z,23.23
2018-03-15T01:07:33.632Z,27.20
2018-03-15T01:10:01.161Z,29.03
2018-03-15T01:12:28.652Z,24.70
2018-03-15T01:14:56.137Z,21.57
2018-03-15T01:17:23.641Z,23.63
2018-03-15T01:19:51.112Z,26.90
2018-03-15T01:22:18.613Z,24.43
2018-03-15T01:24:46.108Z,24.60
2018-03-15T01:27:13.600Z,20.93
2018-03-15T01:29:41.129Z,24.97
2018-03-15T01:32:08.602Z,22.50
2018-03-15T01:34:36.639Z,20.57
2018-03-15T01:37:04.155Z,25.17
2018-03-15T01:39:31.636Z,21.93
2018-03-15T01:41:59.149Z,23.20
2018-03-15T01:44:26.650Z,27.27
2018-03-15T01:46:54.134Z,24.40
2018-03-15T01:49:21.649Z,23.10
2018-03-15T01:51:49.157Z,23.93
2018-03-15T01:54:16.645Z,29.63
2018-03-15T01:56:44.145Z,29.20
2018-03-15T01:59:11.666Z,21.83
2018-03-15T02:01:39.150Z,29.10
2018-03-15T02:04:06.609Z,27.20
2018-03-15T02:06:34.098Z,24.97
2018-03-15T02:09:01.587Z,27.37
2018-03-15T02:11:29.108Z,25.17
2018-03-15T02:13:56.605Z,26.70
2018-03-15T02:16:24.102Z,23.73
2018-03-15T02:18:51.588Z,25.73
2018-03-15T02:21:19.096Z,27.80
2018-03-15T02:23:46.590Z,30.70
2018-03-15T02:26:14.064Z,28.87
2018-03-15T02:28:41.540Z,30.73
2018-03-15T02:31:09.095Z,31.00
2018-03-15T02:33:36.584Z,31.63
2018-03-15T02:36:04.101Z,30.03
2018-03-15T02:38:31.606Z,30.47
2018-03-15T02:40:59.113Z,32.47
2018-03-15T02:43:26.603Z,33.77
2018-03-15T02:45:54.084Z,32.43
2018-03-15T02:48:21.567Z,30.90
2018-03-15T02:50:49.080Z,31.87
2018-03-15T02:53:16.580Z,30.73
2018-03-15T02:55:44.058Z,35.17
2018-03-15T02:58:11.556Z,33.87
2018-03-15T03:00:39.045Z,35.20
2018-03-15T03:03:06.596Z,35.53
2018-03-15T03:05:34.107Z,39.80
2018-03-15T03:08:01.564Z,38.73
2018-03-15T03:10:29.021Z,38.10
2018-03-15T03:12:56.506Z,36.20
2018-03-15T03:15:24.018Z,40.37
2018-03-15T03:17:51.918Z,35.53
2018-03-15T03:20:19.444Z,36.23
2018-03-15T03:22:46.937Z,36.10
2018-03-15T03:25:14.917Z,34.40
2018-03-15T03:27:42.374Z,38.20
2018-03-15T03:30:09.892Z,39.83
2018-03-15T03:32:37.378Z,36.63
2018-03-15T03:35:04.851Z,41.93
2018-03-15T03:37:32.353Z,34.40
2018-03-15T03:39:59.844Z,34.70
2018-03-15T03:42:27.335Z,37.73
2018-03-15T03:44:55.646Z,35.93
2018-03-15T03:47:23.155Z,31.00
2018-03-15T03:49:50.627Z,40.40
2018-03-15T03:52:18.105Z,31.83
2018-03-15T03:54:45.580Z,32.63
2018-03-15T03:57:13.073Z,32.30
2018-03-15T03:59:40.537Z,30.83
2018-03-15T04:02:08.010Z,31.87
2018-03-15T04:04:35.480Z,33.90
2018-03-15T04:07:02.988Z,37.00
2018-03-15T04:09:30.472Z,33.17
2018-03-15T04:11:57.967Z,34.20
2018-03-15T04:14:25.477Z,29.80
2018-03-15T04:16:52.968Z,32.73
2018-03-15T04:19:20.479Z,33.17
2018-03-15T04:21:47.976Z,36.63
2018-03-15T04:24:15.462Z,34.43
2018-03-15T04:26:42.954Z,33.00
2018-03-15T04:29:10.446Z,32.17
2018-03-15T04:31:37.940Z,38.70
2018-03-15T04:34:05.431Z,33.00
2018-03-15T04:36:32.929Z,31.87
2018-03-15T04:41:52.875Z,31.40
2018-03-15T04:44:20.374Z,31.57
2018-03-15T04:46:47.846Z,31.90
2018-03-15T04:49:15.380Z,31.07
2018-03-15T04:51:42.874Z,33.57
2018-03-15T04:54:10.361Z,40.57
2018-03-15T04:56:37.873Z,32.60
2018-03-15T04:59:05.354Z,33.10
2018-03-15T05:01:32.839Z,30.50
2018-03-15T05:04:00.327Z,35.10
2018-03-15T05:06:27.826Z,34.60
2018-03-15T05:08:56.103Z,40.73
2018-03-15T05:11:23.593Z,37.53
2018-03-15T05:13:51.086Z,37.83
2018-03-15T05:16:18.789Z,37.30
2018-03-15T05:18:46.289Z,33.03
2018-03-15T05:21:13.791Z,38.00
2018-03-15T05:23:41.458Z,29.70
2018-03-15T05:26:09.150Z,31.83
2018-03-15T05:28:37.326Z,32.73
2018-03-15T05:31:04.806Z,30.50
2018-03-15T05:33:32.310Z,29.20
2018-03-15T05:35:59.825Z,27.87
2018-03-15T05:38:27.385Z,32.57
2018-03-15T05:40:54.896Z,32.37
2018-03-15T05:43:22.365Z,34.23
2018-03-15T05:45:50.832Z,30.00
2018-03-15T05:48:18.321Z,28.70
2018-03-15T05:50:45.800Z,34.93
2018-03-15T05:53:13.305Z,32.70
2018-03-15T05:55:40.787Z,32.73
2018-03-15T05:58:08.276Z,29.70
2018-03-15T06:00:35.780Z,33.90
2018-03-15T06:03:03.264Z,31.37
2018-03-15T06:05:30.769Z,32.97
2018-03-15T06:07:58.264Z,32.70
2018-03-15T06:10:25.739Z,30.00
2018-03-15T06:12:53.232Z,31.37
2018-03-15T06:15:20.707Z,34.57
2018-03-15T06:17:48.197Z,31.23
2018-03-15T06:20:15.682Z,32.40
2018-03-15T06:22:43.199Z,30.37
2018-03-15T06:25:10.709Z,36.63
2018-03-15T06:27:38.249Z,27.93
2018-03-15T06:30:05.730Z,32.20
2018-03-15T06:32:33.251Z,31.23
2018-03-15T06:35:01.078Z,32.17
2018-03-15T06:37:28.585Z,30.63
2018-03-15T06:39:56.281Z,31.13
2018-03-15T06:42:25.137Z,35.70
2018-03-15T06:44:52.627Z,32.43
2018-03-15T06:47:20.163Z,33.70
2018-03-15T06:49:47.707Z,36.20
2018-03-15T06:52:15.221Z,39.40
2018-03-15T06:54:42.736Z,34.57
2018-03-15T06:57:10.277Z,37.17
2018-03-15T06:59:37.765Z,39.93
2018-03-15T07:02:05.297Z,41.60
2018-03-15T07:04:32.792Z,39.67
2018-03-15T07:07:00.322Z,46.40
2018-03-15T07:09:27.923Z,42.97
2018-03-15T07:11:55.425Z,40.27
2018-03-15T07:14:23.798Z,37.97
2018-03-15T07:16:51.281Z,43.40
2018-03-15T07:19:18.755Z,41.37
2018-03-15T07:21:46.214Z,41.90
2018-03-15T07:24:13.707Z,44.87
2018-03-15T07:26:41.222Z,42.70
2018-03-15T07:29:08.715Z,44.50
2018-03-15T07:31:36.202Z,42.73
2018-03-15T07:34:03.701Z,42.13
2018-03-15T07:36:31.262Z,45.70
2018-03-15T07:38:58.834Z,38.63
2018-03-15T07:41:26.341Z,39.97
2018-03-15T07:43:54.212Z,37.90
2018-03-15T07:46:21.696Z,39.37
2018-03-15T07:48:49.892Z,39.63
2018-03-15T07:51:17.389Z,36.13
2018-03-15T07:53:44.892Z,39.43
2018-03-15T07:56:12.859Z,37.60
2018-03-15T07:58:40.816Z,37.93
2018-03-15T08:01:08.305Z,34.70
2018-03-15T08:03:35.803Z,34.83
2018-03-15T08:06:03.301Z,35.10
2018-03-15T08:08:30.795Z,35.53
2018-03-15T08:10:58.268Z,35.90
2018-03-15T08:13:25.751Z,35.43
2018-03-15T08:15:54.113Z,32.33
2018-03-15T08:18:21.586Z,33.77
2018-03-15T08:20:49.080Z,31.07
2018-03-15T08:23:16.655Z,30.30
2018-03-15T08:25:44.151Z,33.17
2018-03-15T08:28:11.655Z,31.03
2018-03-15T08:30:39.152Z,32.37
2018-03-15T08:33:06.650Z,34.40
2018-03-15T08:35:34.187Z,32.03
2018-03-15T08:38:01.684Z,28.73
2018-03-15T08:40:29.208Z,30.10
2018-03-15T08:42:56.701Z,26.40
2018-03-15T08:45:24.209Z,32.30
2018-03-15T08:47:52.348Z,28.00
2018-03-15T08:50:19.836Z,28.67
2018-03-15T08:52:48.189Z,30.43
2018-03-15T08:55:15.737Z,29.50
2018-03-15T08:57:43.232Z,30.70
2018-03-15T09:00:10.728Z,28.80
2018-03-15T09:02:38.649Z,30.30
2018-03-15T09:05:06.130Z,30.70
2018-03-15T09:07:33.638Z,27.33
2018-03-15T09:10:01.130Z,29.17
2018-03-15T09:12:28.612Z,27.03
2018-03-15T09:14:56.112Z,25.27
2018-03-15T09:17:24.398Z,27.53
2018-03-15T09:19:52.063Z,24.13
2018-03-15T09:22:19.536Z,26.67
2018-03-15T09:24:47.017Z,26.10
2018-03-15T09:27:14.530Z,25.60
2018-03-15T09:29:42.018Z,26.80
2018-03-15T09:32:09.544Z,24.60
2018-03-15T09:34:37.079Z,25.20
2018-03-15T09:37:04.596Z,27.23
2018-03-15T09:39:32.177Z,23.87
2018-03-15T09:41:59.713Z,26.90
2018-03-15T09:44:27.264Z,27.97
2018-03-15T09:46:54.769Z,22.97
2018-03-15T09:49:22.265Z,29.13
2018-03-15T09:51:49.755Z,22.73
2018-03-15T09:54:18.578Z,24.40
2018-03-15T09:56:46.102Z,27.10
2018-03-15T09:59:13.636Z,22.57
2018-03-15T10:01:42.145Z,24.03
2018-03-15T10:04:09.688Z,23.80
2018-03-15T10:06:37.201Z,24.50
2018-03-15T10:09:04.750Z,23.33
2018-03-15T10:11:32.194Z,24.57
2018-03-15T10:13:59.725Z,25.90
2018-03-15T10:16:27.270Z,26.60
2018-03-15T10:18:54.748Z,30.57
2018-03-15T10:21:22.292Z,23.83
2018-03-15T10:23:49.800Z,25.50
2018-03-15T10:26:17.308Z,21.67
2018-03-15T10:28:44.796Z,23.27
2018-03-15T10:31:12.313Z,25.90
2018-03-15T10:33:39.812Z,25.50
2018-03-15T10:36:07.306Z,24.80
2018-03-15T10:38:34.806Z,23.73
2018-03-15T10:41:03.408Z,24.47
2018-03-15T10:43:31.752Z,25.67
2018-03-15T10:45:59.636Z,23.97
2018-03-15T10:48:27.130Z,24.83
2018-03-15T10:50:54.601Z,25.40
2018-03-15T10:53:22.576Z,24.43
2018-03-15T10:55:50.079Z,29.07
2018-03-15T10:58:17.569Z,26.03
2018-03-15T11:00:50.593Z,28.90
2018-03-15T11:03:18.097Z,26.20
2018-03-15T11:05:48.988Z,25.93
2018-03-15T11:08:22.161Z,30.87
2018-03-15T11:10:49.638Z,26.87
2018-03-15T11:13:18.671Z,27.77
2018-03-15T11:15:46.324Z,26.33
2018-03-15T11:18:13.808Z,25.90
2018-03-15T11:20:41.319Z,23.03
2018-03-15T11:23:08.877Z,24.87
2018-03-15T11:25:36.379Z,24.70
2018-03-15T11:28:03.879Z,27.27
2018-03-15T11:30:31.370Z,27.23
2018-03-15T11:32:58.870Z,25.37
2018-03-15T11:35:26.427Z,25.20
2018-03-15T11:37:53.929Z,24.80
2018-03-15T11:40:21.429Z,27.33
2018-03-15T11:42:48.925Z,29.93
2018-03-15T11:45:16.424Z,32.03
2018-03-15T11:47:43.942Z,30.30
2018-03-15T11:50:12.327Z,28.10
2018-03-15T11:52:39.820Z,28.47
2018-03-15T11:55:07.348Z,28.43
2018-03-15T11:57:34.910Z,28.67
2018-03-15T12:00:02.427Z,28.27
2018-03-15T12:02:29.926Z,30.00
2018-03-15T12:04:57.423Z,28.27
2018-03-15T12:07:24.938Z,30.20
2018-03-15T12:09:52.466Z,25.43
2018-03-15T12:12:19.957Z,29.43
2018-03-15T12:14:48.970Z,27.33
2018-03-15T12:17:16.695Z,28.63
2018-03-15T12:19:44.196Z,32.07
2018-03-15T12:22:11.697Z,28.87
2018-03-15T12:24:39.170Z,28.43
2018-03-15T12:27:06.652Z,28.63
2018-03-15T12:29:34.153Z,29.43
2018-03-15T12:32:01.654Z,32.83
2018-03-15T12:34:29.181Z,31.87
2018-03-15T12:36:57.668Z,35.70
2018-03-15T12:39:26.063Z,26.47
2018-03-15T12:41:53.552Z,28.50
2018-03-15T12:44:21.028Z,31.73
2018-03-15T12:46:48.512Z,30.40
2018-03-15T12:49:15.994Z,30.40
2018-03-15T12:51:43.477Z,33.03
2018-03-15T12:54:10.957Z,27.57
2018-03-15T12:56:38.492Z,29.00
2018-03-15T12:59:06.003Z,30.20
2018-03-15T13:01:33.788Z,30.63
2018-03-15T13:04:01.448Z,30.03
2018-03-15T13:06:28.910Z,30.00
2018-03-15T13:08:56.405Z,28.63
2018-03-15T13:11:23.920Z,30.63
2018-03-15T13:13:51.728Z,31.03
2018-03-15T13:16:19.447Z,30.00
2018-03-15T13:18:47.056Z,29.57
2018-03-15T13:21:14.524Z,29.10
2018-03-15T13:23:42.019Z,29.17
2018-03-15T13:26:09.505Z,29.97
2018-03-15T13:28:37.032Z,28.97
2018-03-15T13:31:04.543Z,33.90
2018-03-15T13:33:32.050Z,30.23
2018-03-15T13:35:59.552Z,30.03
2018-03-15T13:38:27.048Z,32.43
2018-03-15T13:40:55.098Z,33.57
2018-03-15T13:43:22.576Z,29.97
2018-03-15T13:45:51.386Z,31.33
2018-03-15T13:48:18.880Z,30.97
2018-03-15T13:50:47.362Z,28.57
2018-03-15T13:53:14.884Z,27.17
2018-03-15T13:55:42.383Z,29.83
2018-03-15T13:58:09.869Z,28.13
2018-03-15T14:00:37.562Z,31.40
2018-03-15T14:03:05.030Z,26.30
2018-03-15T14:05:32.581Z,28.37
2018-03-15T14:08:00.109Z,29.13
2018-03-15T14:10:27.594Z,27.40
2018-03-15T14:12:55.091Z,25.67
2018-03-15T14:15:22.562Z,25.93
2018-03-15T14:17:50.076Z,27.73
2018-03-15T14:20:17.578Z,26.83
2018-03-15T14:22:45.096Z,25.77
2018-03-15T14:25:12.576Z,25.10
2018-03-15T14:27:40.060Z,27.47
2018-03-15T14:30:07.549Z,26.90
2018-03-15T14:32:36.439Z,26.27
2018-03-15T14:35:03.912Z,25.97
2018-03-15T14:37:31.440Z,22.40
2018-03-15T14:39:58.933Z,24.53
2018-03-15T14:42:26.408Z,25.93
2018-03-15T14:44:54.920Z,25.07
2018-03-15T14:47:23.466Z,22.67
2018-03-15T14:49:50.960Z,26.23
2018-03-15T14:52:18.452Z,25.53
2018-03-15T14:54:45.961Z,26.80
2018-03-15T14:57:13.449Z,25.60
2018-03-15T14:59:40.923Z,26.13
2018-03-15T15:02:08.425Z,26.53
2018-03-15T15:04:36.467Z,25.27
2018-03-15T15:07:03.960Z,25.40
2018-03-15T15:09:32.130Z,25.90
2018-03-15T15:11:59.619Z,26.27
2018-03-15T15:14:27.109Z,28.57
2018-03-15T15:16:55.044Z,25.83
2018-03-15T15:19:22.526Z,28.37
2018-03-15T15:21:50.024Z,29.77
2018-03-15T15:24:17.521Z,28.77
2018-03-15T15:26:45.635Z,28.10
2018-03-15T15:29:13.155Z,31.20
2018-03-15T15:31:40.631Z,32.40
2018-03-15T15:34:08.097Z,29.47
2018-03-15T15:36:35.558Z,27.13
2018-03-15T15:39:03.048Z,33.27
2018-03-15T15:41:30.530Z,31.03
2018-03-15T15:43:58.014Z,34.87
2018-03-15T15:46:25.521Z,32.20
2018-03-15T15:48:53.005Z,30.33
2018-03-15T15:51:20.486Z,32.77
2018-03-15T15:53:47.992Z,34.90
2018-03-15T15:56:15.461Z,37.53
2018-03-15T15:58:42.930Z,34.97
2018-03-15T16:01:11.173Z,33.07
2018-03-15T16:03:38.988Z,36.50
2018-03-15T16:06:07.460Z,34.23
2018-03-15T16:08:35.622Z,38.53
2018-03-15T16:11:03.315Z,38.03
2018-03-15T16:13:30.881Z,36.50
2018-03-15T16:15:58.363Z,35.63
2018-03-15T16:18:25.868Z,38.03
2018-03-15T16:20:53.363Z,37.13
2018-03-15T16:23:20.837Z,43.97
2018-03-15T16:25:48.362Z,36.70
2018-03-15T16:28:15.950Z,38.87
2018-03-15T16:30:43.486Z,39.07
2018-03-15T16:33:10.980Z,34.33
2018-03-15T16:35:38.461Z,33.80
2018-03-15T16:38:05.953Z,36.83
2018-03-15T16:40:33.452Z,36.57
2018-03-15T16:43:00.923Z,38.60
2018-03-15T16:45:28.405Z,33.87
2018-03-15T16:47:55.896Z,36.63
2018-03-15T16:50:23.995Z,34.80
2018-03-15T16:52:51.473Z,33.27
2018-03-15T16:55:19.374Z,33.93
2018-03-15T16:57:46.880Z,34.63
2018-03-15T17:00:14.362Z,33.90
2018-03-15T17:02:42.313Z,33.07
2018-03-15T17:05:09.819Z,36.47
2018-03-15T17:07:37.323Z,31.70
2018-03-15T17:10:04.844Z,31.53
2018-03-15T17:12:32.335Z,34.27
2018-03-15T17:14:59.813Z,37.70
2018-03-15T17:17:27.964Z,35.50
2018-03-15T17:19:55.490Z,28.40
2018-03-15T17:22:22.942Z,30.90
2018-03-15T17:24:51.046Z,30.77
2018-03-15T17:27:18.576Z,30.30
2018-03-15T17:29:46.096Z,31.37
2018-03-15T17:32:13.584Z,29.37
2018-03-15T17:34:41.077Z,27.63
2018-03-15T17:37:09.593Z,27.50
2018-03-15T17:39:37.059Z,27.43
2018-03-15T17:42:04.538Z,27.80
2018-03-15T17:44:33.021Z,27.17
2018-03-15T17:47:00.549Z,28.40
2018-03-15T17:49:28.051Z,29.50
2018-03-15T17:51:55.524Z,30.17
2018-03-15T17:54:23.011Z,25.80
2018-03-15T17:56:50.482Z,29.27
2018-03-15T17:59:17.980Z,26.30
2018-03-15T18:01:45.544Z,30.70
2018-03-15T18:04:13.083Z,29.87
2018-03-15T18:06:40.596Z,31.43
2018-03-15T18:09:08.111Z,31.10
2018-03-15T18:11:35.774Z,30.53
2018-03-15T18:14:03.276Z,29.83
2018-03-15T18:16:31.449Z,27.43
2018-03-15T18:18:58.946Z,32.57
2018-03-15T18:21:26.885Z,27.73
2018-03-15T18:23:54.369Z,29.57
2018-03-15T18:26:21.855Z,32.43
2018-03-15T18:28:49.334Z,32.33
2018-03-15T18:31:16.830Z,28.13
2018-03-15T18:33:44.330Z,31.07
2018-03-15T18:36:11.882Z,27.93
2018-03-15T18:38:39.845Z,35.40
2018-03-15T18:41:07.915Z,30.17
2018-03-15T18:43:35.410Z,35.07
2018-03-15T18:46:03.520Z,33.70
2018-03-15T18:48:30.997Z,32.47
2018-03-15T18:50:58.528Z,34.47
2018-03-15T18:53:26.427Z,36.97
2018-03-15T18:55:53.932Z,33.53
2018-03-15T18:58:21.412Z,34.27
2018-03-15T19:00:49.235Z,39.53
2018-03-15T19:03:16.699Z,38.83
2018-03-15T19:05:44.194Z,32.93
2018-03-15T19:08:11.682Z,35.60
2018-03-15T19:10:39.178Z,39.13
2018-03-15T19:13:06.689Z,37.77
2018-03-15T19:15:34.209Z,37.13
2018-03-15T19:18:01.715Z,35.87
2018-03-15T19:20:30.098Z,31.27
2018-03-15T19:22:58.866Z,38.03
2018-03-15T19:25:26.354Z,39.03
2018-03-15T19:27:53.871Z,42.83
2018-03-15T19:30:21.374Z,39.77
2018-03-15T19:32:48.873Z,42.43
2018-03-15T19:35:16.398Z,36.87
2018-03-15T19:37:45.768Z,40.13
2018-03-15T19:40:13.352Z,39.00
2018-03-15T19:42:41.499Z,42.07
2018-03-15T19:45:09.166Z,41.33
2018-03-15T19:47:36.753Z,40.47
2018-03-15T19:50:04.273Z,43.47
2018-03-15T19:52:32.360Z,45.33
2018-03-15T19:55:00.139Z,43.67
2018-03-15T19:57:27.622Z,47.63
2018-03-15T19:59:55.146Z,47.27
2018-03-15T20:02:22.940Z,44.50
2018-03-15T20:04:50.969Z,44.57
2018-03-15T20:07:18.550Z,40.90
2018-03-15T20:09:48.987Z,46.67
2018-03-15T20:14:55.492Z,47.03
2018-03-15T20:17:23.002Z,48.13
2018-03-15T20:19:51.562Z,49.93
2018-03-15T20:22:25.210Z,45.63
2018-03-15T20:24:52.745Z,44.10
2018-03-15T20:27:25.782Z,47.03
2018-03-15T20:29:53.296Z,52.00
2018-03-15T20:32:26.430Z,50.83
2018-03-15T20:34:53.969Z,52.33
2018-03-15T20:37:22.200Z,52.97
2018-03-15T20:39:56.856Z,56.53
2018-03-15T20:42:24.458Z,56.07
2018-03-15T20:44:52.998Z,61.77
2018-03-15T20:47:25.985Z,54.40
2018-03-15T20:49:53.526Z,59.67
2018-03-15T20:52:21.030Z,60.77
2018-03-15T20:54:48.548Z,52.47
2018-03-15T20:57:16.042Z,55.40
2018-03-15T20:59:43.546Z,60.33
2018-03-15T21:02:11.041Z,61.20
2018-03-15T21:04:38.601Z,56.43
2018-03-15T21:07:06.224Z,58.00
2018-03-15T21:09:35.302Z,58.10
2018-03-15T21:12:06.442Z,59.57
2018-03-15T21:14:33.926Z,57.43
2018-03-15T21:17:01.431Z,59.10
2018-03-15T21:19:29.960Z,58.37
2018-03-15T21:21:57.539Z,59.57
2018-03-15T21:24:25.765Z,62.17
2018-03-15T21:26:53.417Z,61.43
2018-03-15T21:29:25.753Z,62.67
2018-03-15T21:31:54.227Z,62.63
2018-03-15T21:34:22.786Z,61.97
2018-03-15T21:36:50.912Z,64.53
2018-03-15T21:39:19.312Z,67.67
2018-03-15T21:41:46.820Z,66.87
2018-03-15T21:44:14.312Z,65.20
2018-03-15T21:46:41.953Z,59.80
2018-03-15T21:49:09.452Z,62.93
2018-03-15T21:51:36.933Z,64.03
2018-03-15T21:54:04.457Z,58.30
2018-03-15T21:56:32.113Z,67.80
2018-03-15T21:58:59.618Z,65.23
2018-03-15T22:01:28.039Z,64.47
2018-03-15T22:03:55.618Z,66.90
2018-03-15T22:06:23.096Z,64.70
2018-03-15T22:08:50.564Z,64.27
2018-03-15T22:11:18.125Z,68.37
2018-03-15T22:13:50.169Z,67.90
2018-03-15T22:16:21.561Z,71.90
2018-03-15T22:18:51.071Z,64.33
2018-03-15T22:21:18.688Z,71.07
2018-03-15T22:23:48.445Z,62.77
2018-03-15T22:26:15.910Z,66.53
2018-03-15T22:28:44.382Z,71.17
2018-03-15T22:31:12.532Z,63.80
2018-03-15T22:33:40.101Z,68.07
2018-03-15T22:36:08.697Z,64.87
2018-03-15T22:38:36.266Z,62.37
2018-03-15T22:41:03.730Z,66.93
2018-03-15T22:43:31.222Z,66.17
2018-03-15T22:45:58.734Z,67.47
2018-03-15T22:48:27.269Z,68.93
2018-03-15T22:50:54.752Z,63.63
2018-03-15T22:53:22.277Z,68.93
2018-03-15T22:55:49.800Z,61.67
2018-03-15T22:58:17.382Z,61.57
2018-03-15T23:00:44.893Z,78.13
2018-03-15T23:03:12.385Z,67.00
2018-03-15T23:05:39.900Z,60.77
2018-03-15T23:08:15.541Z,70.43
2018-03-15T23:10:43.153Z,75.83
2018-03-15T23:13:11.345Z,70.63
2018-03-15T23:15:39.463Z,69.57
2018-03-15T23:18:06.944Z,64.63
2018-03-15T23:20:35.130Z,73.30
2018-03-15T23:23:03.519Z,68.90
2018-03-15T23:25:31.143Z,67.43
2018-03-15T23:27:58.876Z,69.00
2018-03-15T23:30:26.761Z,70.20
2018-03-15T23:32:54.253Z,72.27
2018-03-15T23:35:26.196Z,72.33
2018-03-15T23:37:55.065Z,69.77
2018-03-15T23:40:22.857Z,66.10
2018-03-15T23:42:50.433Z,65.80
2018-03-15T23:45:18.152Z,68.80
2018-03-15T23:47:47.564Z,70.53
2018-03-15T23:50:15.049Z,65.27
2018-03-15T23:52:42.576Z,72.93
2018-03-15T23:55:10.078Z,71.23
2018-03-15T23:57:38.931Z,65.77
